Elkhart, IN (46514)

6:02 AM EDT on September 03, 2015 (GMT -0400)
East Jackson Blvd | | Change Station
CLOSE
Current Station
Personal Weather Station
Location: Elkhart, IN
Elevation: 753 ft
Nearby Weather Stations

Elev 753 ft 41.69 °N, 85.94 °W | Updated 15 seconds ago

Clear
Clear
72.5 °F
Feels Like 72.5 °F
N
1.6
Wind Variable Wind from South
Gusts 2.2 mph

Today
High -- | Low -- °F
--% Chance of Precip.
Yesterday
High -- | Low -- °F
Precip. -- in
7:11 AM 8:14 PM
Waning Gibbous, 72% visible
Pressure 29.97 in
Visibility 6.0 miles
Clouds Few 6000 ft
Dew Point 71 °F
Humidity 96%
Rainfall 0.00 in
Snow Depth Not available.
UV 0 out of 12
Pollen 9.30 out of 12
Air Quality Not available.
Flu Activity Not available.
METAR KGSH 030953Z AUTO 00000KT 6SM BR FEW060 21/19 A2998 RMK AO2 SLP147 T02110194
Pressure 29.97 in
Visibility 6.0 miles
Clouds Few 6000 ft
Dew Point 71 °F
Humidity 96%
Rainfall 0.00 in
Snow Depth Not available.
UV 0 out of 12
Pollen 9.30 out of 12
Air Quality Not available.
Flu Activity Not available.
METAR KGSH 030953Z AUTO 00000KT 6SM BR FEW060 21/19 A2998 RMK AO2 SLP147 T02110194

10-Day Weather Forecast

×

Almanac

Astronomy

Sep. 03, 2015 Rise Set
Actual Time
Civil Twilight
Nautical Twilight
Astronomical Twilight
Moon
Length of Visible Light
Length of Day
Tomorrow will be .
, % of the Moon is Illuminated

Today's Extremes

State Highs State Lows

Community

WunderPhotos

Upload Photos

1,851,923 photos uploaded!

WunderBlogs® & News

Nearby

Air Quality

  Air Quality AQ Index Pollutant
Not available.

Snow Depth

Station Depth Elevation

Earthquake Activity

City Distance Mag. Time & Date
Minimum magnitude displayed is 2.5.

Coastal Water Temperatures

Place Temperature

Stations

Nearby Weather Stations

Station Location Temp. Windchill Dew Point Humidity Wind Precip. Elev Updated Type